Istanbul, Turkey

9:50 AM EEST on August 20, 2014 (GMT +0300)
Ataturk | Change Station
CLOSE
Current Station
Airport
Location: Istanbul,
Elevation: 121 ft
Nearby Weather Stations

Elev 121 ft 40.98 °N, 28.81 °E | Updated 30 minutes ago

Clear
Clear
79 °F
Feels Like 79 °F
N
10
Wind Variable Wind from NNE

Today
High -- | Low -- °F
--% Chance of Precip.
Yesterday
High -- | Low -- °F
Precip. -- in
6:19 AM 7:56 PM
Waning Crescent, 24% visible
Pressure 30.04 in
Visibility -9999.0 miles
Clouds
Dew Point 63 °F
Humidity 57%
Rainfall 0.00 in
Snow Depth Not available.
UV Not available.
Pollen Not available.
Air Quality Not available.
Flu Activity Not available.
METAR LTBA 200620Z 02009KT 350V070 CAVOK 26/17 Q1017 NOSIG RMK RWY17L 03009KT 360V070 RWY05 04009KT RWY23 04009KT 360V070

More Conditions Fewer Conditions

Pressure 30.04 in
Visibility -9999.0 miles
Clouds
Dew Point 63 °F
Humidity 57%
Rainfall 0.00 in
Snow Depth Not available.
UV Not available.
Pollen Not available.
Air Quality Not available.
Flu Activity Not available.
METAR LTBA 200620Z 02009KT 350V070 CAVOK 26/17 Q1017 NOSIG RMK RWY17L 03009KT 360V070 RWY05 04009KT RWY23 04009KT 360V070

More Conditions Fewer Conditions

10-Day Weather Forecast

Almanac

Astronomy

Aug. 20, 2014 Rise Set
Actual Time 6:19 AM EEST 7:56 PM EEST
Civil Twilight 5:50 AM EEST 8:25 PM EEST
Nautical Twilight 5:14 AM EEST 9:00 PM EEST
Astronomical Twilight 4:37 AM EEST 9:37 PM EEST
Moon 1:42 AM EEST 4:26 PM EEST
Length of Visible Light 14h 35m
Length of Day
13h 37m
Tomorrow will be 2m 29s shorter.
Waning Crescent, 24% of the Moon is Illuminated
Today
Waning Crescent
Aug 25
New
Sep 2
First Quarter
Sep 8
Full
Sep 15
Last Quarter

Yesterday's Extremes

Country Highs Country Lows

Community

WunderPhotos

Upload Photos

1,745,592 photos uploaded!

Nearby

Snow Depth

Not available.

Earthquake Activity

City Distance Mag. Time & Date
No recent earthquake activity has been reported nearby.
Minimum magnitude displayed is 2.5.

Coastal Water Temperatures

Place Temperature
No Stations Reporting

Nearby Weather Stations